sensor_id;sensor_type;location;lat;lon;timestamp;temperature;humidity
21563;DHT22;10942;47.894;11.424;2023-01-29T00:01:29;-1.70;99.90
21563;DHT22;10942;47.894;11.424;2023-01-29T00:03:55;-1.70;99.90
21563;DHT22;10942;47.894;11.424;2023-01-29T00:06:21;-1.60;99.90
21563;DHT22;10942;47.894;11.424;2023-01-29T00:08:50;-1.60;99.90
21563;DHT22;10942;47.894;11.424;2023-01-29T00:11:16;-1.60;99.90
21563;DHT22;10942;47.894;11.424;2023-01-29T00:13:42;-1.60;99.90
21563;DHT22;10942;47.894;11.424;2023-01-29T00:16:09;-1.50;99.90
21563;DHT22;10942;47.894;11.424;2023-01-29T00:18:38;-1.50;99.90
21563;DHT22;10942;47.894;11.424;2023-01-29T00:21:12;-1.40;99.90
21563;DHT22;10942;47.894;11.424;2023-01-29T00:23:38;-1.40;99.90
21563;DHT22;10942;47.894;11.424;2023-01-29T00:26:04;-1.40;99.90
21563;DHT22;10942;47.894;11.424;2023-01-29T00:28:30;-1.40;99.90
21563;DHT22;10942;47.894;11.424;2023-01-29T00:30:56;-1.40;99.90
21563;DHT22;10942;47.894;11.424;2023-01-29T00:33:22;-1.30;99.90
21563;DHT22;10942;47.894;11.424;2023-01-29T00:35:47;-1.30;99.90
21563;DHT22;10942;47.894;11.424;2023-01-29T00:38:13;-1.30;99.90
21563;DHT22;10942;47.894;11.424;2023-01-29T00:40:39;-1.30;99.90
21563;DHT22;10942;47.894;11.424;2023-01-29T00:43:24;-1.30;99.90
21563;DHT22;10942;47.894;11.424;2023-01-29T00:46:08;-1.50;99.90
21563;DHT22;10942;47.894;11.424;2023-01-29T00:48:35;-1.60;99.90
21563;DHT22;10942;47.894;11.424;2023-01-29T00:51:01;-1.60;99.90
21563;DHT22;10942;47.894;11.424;2023-01-29T00:53:27;-1.60;99.90
21563;DHT22;10942;47.894;11.424;2023-01-29T00:55:53;-1.50;99.90
21563;DHT22;10942;47.894;11.424;2023-01-29T00:58:19;-1.50;99.90
21563;DHT22;10942;47.894;11.424;2023-01-29T01:00:53;-1.50;99.90
21563;DHT22;10942;47.894;11.424;2023-01-29T01:03:19;-1.50;99.90
21563;DHT22;10942;47.894;11.424;2023-01-29T01:05:46;-1.40;99.90
21563;DHT22;10942;47.894;11.424;2023-01-29T01:08:12;-1.40;99.90
21563;DHT22;10942;47.894;11.424;2023-01-29T01:11:05;-1.40;99.90
21563;DHT22;10942;47.894;11.424;2023-01-29T01:13:32;-1.40;99.90
21563;DHT22;10942;47.894;11.424;2023-01-29T01:15:58;-1.40;99.90
21563;DHT22;10942;47.894;11.424;2023-01-29T01:18:24;-1.40;99.90
21563;DHT22;10942;47.894;11.424;2023-01-29T01:20:56;-1.30;99.90
21563;DHT22;10942;47.894;11.424;2023-01-29T01:23:22;-1.30;99.90
21563;DHT22;10942;47.894;11.424;2023-01-29T01:25:48;-1.40;99.90
21563;DHT22;10942;47.894;11.424;2023-01-29T01:28:14;-1.40;99.90
21563;DHT22;10942;47.894;11.424;2023-01-29T01:30:40;-1.40;99.90
21563;DHT22;10942;47.894;11.424;2023-01-29T01:33:06;-1.40;99.90
21563;DHT22;10942;47.894;11.424;2023-01-29T01:35:32;-1.40;99.90
21563;DHT22;10942;47.894;11.424;2023-01-29T01:37:58;-1.40;99.90
21563;DHT22;10942;47.894;11.424;2023-01-29T01:40:25;-1.40;99.90
21563;DHT22;10942;47.894;11.424;2023-01-29T01:42:53;-1.30;99.90
21563;DHT22;10942;47.894;11.424;2023-01-29T01:47:58;-1.30;99.90
21563;DHT22;10942;47.894;11.424;2023-01-29T01:50:34;-1.20;99.90
21563;DHT22;10942;47.894;11.424;2023-01-29T01:53:09;-1.20;99.90
21563;DHT22;10942;47.894;11.424;2023-01-29T01:55:48;-1.20;99.90
21563;DHT22;10942;47.894;11.424;2023-01-29T01:58:25;-1.30;99.90
21563;DHT22;10942;47.894;11.424;2023-01-29T02:00:52;-1.40;99.90
21563;DHT22;10942;47.894;11.424;2023-01-29T02:03:21;-1.40;99.90
21563;DHT22;10942;47.894;11.424;2023-01-29T02:06:06;-1.30;99.90
21563;DHT22;10942;47.894;11.424;2023-01-29T02:08:55;-1.30;99.90
21563;DHT22;10942;47.894;11.424;2023-01-29T02:11:40;-1.30;99.90
21563;DHT22;10942;47.894;11.424;2023-01-29T02:14:06;-1.30;99.90
21563;DHT22;10942;47.894;11.424;2023-01-29T02:16:34;-1.20;99.90
21563;DHT22;10942;47.894;11.424;2023-01-29T02:19:04;-1.20;99.90
21563;DHT22;10942;47.894;11.424;2023-01-29T02:21:56;-1.20;99.90
21563;DHT22;10942;47.894;11.424;2023-01-29T02:38:41;-1.20;99.90
21563;DHT22;10942;47.894;11.424;2023-01-29T02:41:14;-1.20;99.90
21563;DHT22;10942;47.894;11.424;2023-01-29T02:46:31;-1.20;99.90
21563;DHT22;10942;47.894;11.424;2023-01-29T02:54:48;-1.30;99.90
21563;DHT22;10942;47.894;11.424;2023-01-29T02:57:22;-1.40;99.90
21563;DHT22;10942;47.894;11.424;2023-01-29T02:59:58;-1.40;99.90
21563;DHT22;10942;47.894;11.424;2023-01-29T03:02:32;-1.30;99.90
21563;DHT22;10942;47.894;11.424;2023-01-29T03:05:02;-1.40;99.90
21563;DHT22;10942;47.894;11.424;2023-01-29T03:07:34;-1.40;99.90
21563;DHT22;10942;47.894;11.424;2023-01-29T03:13:06;-1.40;99.90
21563;DHT22;10942;47.894;11.424;2023-01-29T03:15:45;-1.30;99.90
21563;DHT22;10942;47.894;11.424;2023-01-29T03:18:52;-1.30;99.90
21563;DHT22;10942;47.894;11.424;2023-01-29T03:21:31;-1.30;99.90
21563;DHT22;10942;47.894;11.424;2023-01-29T03:27:27;-1.20;99.90
21563;DHT22;10942;47.894;11.424;2023-01-29T03:30:15;-1.20;99.90
21563;DHT22;10942;47.894;11.424;2023-01-29T03:33:24;-1.20;99.90
21563;DHT22;10942;47.894;11.424;2023-01-29T03:35:57;-1.20;99.90
21563;DHT22;10942;47.894;11.424;2023-01-29T03:38:25;-1.20;99.90
21563;DHT22;10942;47.894;11.424;2023-01-29T03:41:04;-1.10;99.90
21563;DHT22;10942;47.894;11.424;2023-01-29T03:46:34;-1.10;99.90
21563;DHT22;10942;47.894;11.424;2023-01-29T03:49:06;-1.10;99.90
21563;DHT22;10942;47.894;11.424;2023-01-29T03:52:01;-1.10;99.90
21563;DHT22;10942;47.894;11.424;2023-01-29T03:57:27;-1.10;99.90
21563;DHT22;10942;47.894;11.424;2023-01-29T04:00:01;-1.00;99.90
21563;DHT22;10942;47.894;11.424;2023-01-29T04:05:49;-1.00;99.90
21563;DHT22;10942;47.894;11.424;2023-01-29T04:08:28;-1.00;99.90
21563;DHT22;10942;47.894;11.424;2023-01-29T04:11:00;-1.20;99.90
21563;DHT22;10942;47.894;11.424;2023-01-29T04:13:29;-1.10;99.90
21563;DHT22;10942;47.894;11.424;2023-01-29T04:15:59;-1.10;99.90
21563;DHT22;10942;47.894;11.424;2023-01-29T04:18:50;-1.10;99.90
21563;DHT22;10942;47.894;11.424;2023-01-29T04:21:21;-1.10;99.90
21563;DHT22;10942;47.894;11.424;2023-01-29T04:23:47;-1.10;99.90
21563;DHT22;10942;47.894;11.424;2023-01-29T04:26:30;-1.10;99.90
21563;DHT22;10942;47.894;11.424;2023-01-29T04:32:14;-1.20;99.90
21563;DHT22;10942;47.894;11.424;2023-01-29T04:35:16;-1.20;99.90
21563;DHT22;10942;47.894;11.424;2023-01-29T04:38:11;-1.20;99.90
21563;DHT22;10942;47.894;11.424;2023-01-29T04:41:05;-1.30;99.90
21563;DHT22;10942;47.894;11.424;2023-01-29T04:46:34;-1.20;99.90
21563;DHT22;10942;47.894;11.424;2023-01-29T04:49:20;-1.20;99.90
21563;DHT22;10942;47.894;11.424;2023-01-29T04:57:59;-1.20;99.90
21563;DHT22;10942;47.894;11.424;2023-01-29T05:00:28;-1.20;99.90
21563;DHT22;10942;47.894;11.424;2023-01-29T05:02:58;-1.20;99.90
21563;DHT22;10942;47.894;11.424;2023-01-29T05:05:25;-1.30;99.90
21563;DHT22;10942;47.894;11.424;2023-01-29T05:07:53;-1.30;99.90
21563;DHT22;10942;47.894;11.424;2023-01-29T05:10:21;-1.30;99.90
21563;DHT22;10942;47.894;11.424;2023-01-29T05:12:52;-1.30;99.90
21563;DHT22;10942;47.894;11.424;2023-01-29T05:15:24;-1.20;99.90
21563;DHT22;10942;47.894;11.424;2023-01-29T05:17:51;-1.30;99.90
21563;DHT22;10942;47.894;11.424;2023-01-29T05:20:18;-1.20;99.90
21563;DHT22;10942;47.894;11.424;2023-01-29T05:22:45;-1.20;99.90
21563;DHT22;10942;47.894;11.424;2023-01-29T05:27:48;-1.20;99.90
21563;DHT22;10942;47.894;11.424;2023-01-29T05:30:37;-1.20;99.90
21563;DHT22;10942;47.894;11.424;2023-01-29T05:33:08;-1.20;99.90
21563;DHT22;10942;47.894;11.424;2023-01-29T05:35:36;-1.20;99.90
21563;DHT22;10942;47.894;11.424;2023-01-29T05:38:01;-1.20;99.90
21563;DHT22;10942;47.894;11.424;2023-01-29T05:40:27;-1.20;99.90
21563;DHT22;10942;47.894;11.424;2023-01-29T05:42:53;-1.20;99.90
21563;DHT22;10942;47.894;11.424;2023-01-29T05:45:19;-1.20;99.90
21563;DHT22;10942;47.894;11.424;2023-01-29T05:47:45;-1.20;99.90
21563;DHT22;10942;47.894;11.424;2023-01-29T05:50:13;-1.20;99.90
21563;DHT22;10942;47.894;11.424;2023-01-29T05:52:39;-1.10;99.90
21563;DHT22;10942;47.894;11.424;2023-01-29T05:55:06;-1.10;99.90
21563;DHT22;10942;47.894;11.424;2023-01-29T05:57:32;-1.20;99.90
21563;DHT22;10942;47.894;11.424;2023-01-29T05:59:58;-1.20;99.90
21563;DHT22;10942;47.894;11.424;2023-01-29T06:02:23;-1.20;99.90
21563;DHT22;10942;47.894;11.424;2023-01-29T06:04:52;-1.20;99.90
21563;DHT22;10942;47.894;11.424;2023-01-29T06:07:18;-1.30;99.90
21563;DHT22;10942;47.894;11.424;2023-01-29T06:09:43;-1.30;99.90
21563;DHT22;10942;47.894;11.424;2023-01-29T06:12:09;-1.20;99.90
21563;DHT22;10942;47.894;11.424;2023-01-29T06:14:35;-1.20;99.90
21563;DHT22;10942;47.894;11.424;2023-01-29T06:17:00;-1.20;99.90
21563;DHT22;10942;47.894;11.424;2023-01-29T06:19:26;-1.20;99.90
21563;DHT22;10942;47.894;11.424;2023-01-29T06:21:52;-1.10;99.90
21563;DHT22;10942;47.894;11.424;2023-01-29T06:24:17;-1.10;99.90
21563;DHT22;10942;47.894;11.424;2023-01-29T06:26:43;-1.00;99.90
21563;DHT22;10942;47.894;11.424;2023-01-29T06:29:09;-1.00;99.90
21563;DHT22;10942;47.894;11.424;2023-01-29T06:31:35;-1.00;99.90
21563;DHT22;10942;47.894;11.424;2023-01-29T06:34:00;-1.10;99.90
21563;DHT22;10942;47.894;11.424;2023-01-29T06:36:26;-1.00;99.90
21563;DHT22;10942;47.894;11.424;2023-01-29T06:38:52;-1.00;99.90
21563;DHT22;10942;47.894;11.424;2023-01-29T06:41:18;-1.00;99.90
21563;DHT22;10942;47.894;11.424;2023-01-29T06:43:49;-1.00;99.90
21563;DHT22;10942;47.894;11.424;2023-01-29T06:46:16;-1.00;99.90
21563;DHT22;10942;47.894;11.424;2023-01-29T06:48:42;-1.00;99.90
21563;DHT22;10942;47.894;11.424;2023-01-29T06:51:09;-1.00;99.90
21563;DHT22;10942;47.894;11.424;2023-01-29T06:53:36;-1.00;99.90
21563;DHT22;10942;47.894;11.424;2023-01-29T06:56:03;-1.00;99.90
21563;DHT22;10942;47.894;11.424;2023-01-29T06:58:29;-1.00;99.90
21563;DHT22;10942;47.894;11.424;2023-01-29T07:01:05;-1.00;99.90
21563;DHT22;10942;47.894;11.424;2023-01-29T07:03:31;-1.00;99.90
21563;DHT22;10942;47.894;11.424;2023-01-29T07:05:57;-1.00;99.90
21563;DHT22;10942;47.894;11.424;2023-01-29T07:08:23;-0.90;99.90
21563;DHT22;10942;47.894;11.424;2023-01-29T07:10:49;-1.00;99.90
21563;DHT22;10942;47.894;11.424;2023-01-29T07:13:15;-0.90;99.90
21563;DHT22;10942;47.894;11.424;2023-01-29T07:15:41;-0.80;99.90
21563;DHT22;10942;47.894;11.424;2023-01-29T07:18:08;-0.70;99.90
21563;DHT22;10942;47.894;11.424;2023-01-29T07:20:38;-0.60;99.90
21563;DHT22;10942;47.894;11.424;2023-01-29T07:23:04;-0.50;99.90
21563;DHT22;10942;47.894;11.424;2023-01-29T07:25:32;-0.30;99.90
21563;DHT22;10942;47.894;11.424;2023-01-29T07:27:59;-0.20;99.90
21563;DHT22;10942;47.894;11.424;2023-01-29T07:30:25;-0.20;99.90
21563;DHT22;10942;47.894;11.424;2023-01-29T07:32:52;-0.10;99.90
21563;DHT22;10942;47.894;11.424;2023-01-29T07:35:17;0.00;99.90
21563;DHT22;10942;47.894;11.424;2023-01-29T07:37:43;0.20;99.90
21563;DHT22;10942;47.894;11.424;2023-01-29T07:40:09;0.40;99.90
21563;DHT22;10942;47.894;11.424;2023-01-29T07:42:38;0.60;99.90
21563;DHT22;10942;47.894;11.424;2023-01-29T07:45:07;0.80;99.90
21563;DHT22;10942;47.894;11.424;2023-01-29T07:47:33;1.20;99.90
21563;DHT22;10942;47.894;11.424;2023-01-29T07:49:59;1.30;99.90
21563;DHT22;10942;47.894;11.424;2023-01-29T07:52:25;1.30;99.90
21563;DHT22;10942;47.894;11.424;2023-01-29T07:54:50;1.40;99.90
21563;DHT22;10942;47.894;11.424;2023-01-29T07:57:16;1.40;99.90
21563;DHT22;10942;47.894;11.424;2023-01-29T07:59:42;1.70;99.90
21563;DHT22;10942;47.894;11.424;2023-01-29T08:02:08;2.00;99.90
21563;DHT22;10942;47.894;11.424;2023-01-29T08:04:34;2.10;99.90
21563;DHT22;10942;47.894;11.424;2023-01-29T08:07:00;2.20;99.90
21563;DHT22;10942;47.894;11.424;2023-01-29T08:09:26;2.40;99.90
21563;DHT22;10942;47.894;11.424;2023-01-29T08:11:51;2.30;99.90
21563;DHT22;10942;47.894;11.424;2023-01-29T08:14:18;2.50;99.90
21563;DHT22;10942;47.894;11.424;2023-01-29T08:16:43;2.70;99.90
21563;DHT22;10942;47.894;11.424;2023-01-29T08:24:01;3.10;99.90
21563;DHT22;10942;47.894;11.424;2023-01-29T08:26:27;3.70;99.90
21563;DHT22;10942;47.894;11.424;2023-01-29T08:28:53;3.70;99.90
21563;DHT22;10942;47.894;11.424;2023-01-29T08:31:19;3.40;99.90
21563;DHT22;10942;47.894;11.424;2023-01-29T08:33:48;3.30;99.90
21563;DHT22;10942;47.894;11.424;2023-01-29T08:36:13;3.40;99.90
21563;DHT22;10942;47.894;11.424;2023-01-29T08:38:39;3.30;99.90
21563;DHT22;10942;47.894;11.424;2023-01-29T08:41:06;3.30;99.90
21563;DHT22;10942;47.894;11.424;2023-01-29T08:43:32;3.10;99.90
21563;DHT22;10942;47.894;11.424;2023-01-29T08:45:59;3.00;99.90
21563;DHT22;10942;47.894;11.424;2023-01-29T08:48:25;2.80;99.90
21563;DHT22;10942;47.894;11.424;2023-01-29T08:50:50;2.70;99.90
21563;DHT22;10942;47.894;11.424;2023-01-29T08:53:16;2.80;99.90
21563;DHT22;10942;47.894;11.424;2023-01-29T08:55:45;2.70;99.90
21563;DHT22;10942;47.894;11.424;2023-01-29T08:58:11;3.00;99.90
21563;DHT22;10942;47.894;11.424;2023-01-29T09:00:37;3.10;99.90
21563;DHT22;10942;47.894;11.424;2023-01-29T09:03:03;2.90;99.90
21563;DHT22;10942;47.894;11.424;2023-01-29T09:05:33;3.00;99.90
21563;DHT22;10942;47.894;11.424;2023-01-29T09:07:59;3.30;99.90
21563;DHT22;10942;47.894;11.424;2023-01-29T09:10:25;3.60;99.90
21563;DHT22;10942;47.894;11.424;2023-01-29T09:12:51;3.40;99.90
21563;DHT22;10942;47.894;11.424;2023-01-29T09:15:16;3.30;99.90
21563;DHT22;10942;47.894;11.424;2023-01-29T09:17:42;3.40;99.90
21563;DHT22;10942;47.894;11.424;2023-01-29T09:20:08;3.50;99.90
21563;DHT22;10942;47.894;11.424;2023-01-29T09:22:34;3.80;99.90
21563;DHT22;10942;47.894;11.424;2023-01-29T09:25:00;3.90;99.90
21563;DHT22;10942;47.894;11.424;2023-01-29T09:27:26;4.10;99.90
21563;DHT22;10942;47.894;11.424;2023-01-29T09:29:52;4.40;99.90
21563;DHT22;10942;47.894;11.424;2023-01-29T09:34:43;4.50;99.90
21563;DHT22;10942;47.894;11.424;2023-01-29T09:37:09;5.40;99.90
21563;DHT22;10942;47.894;11.424;2023-01-29T09:39:35;5.70;99.90
21563;DHT22;10942;47.894;11.424;2023-01-29T09:47:23;6.40;99.90
21563;DHT22;10942;47.894;11.424;2023-01-29T09:55:11;7.10;99.90
21563;DHT22;10942;47.894;11.424;2023-01-29T09:57:49;6.80;99.90
21563;DHT22;10942;47.894;11.424;2023-01-29T10:00:22;6.70;99.90
21563;DHT22;10942;47.894;11.424;2023-01-29T10:02:58;6.70;99.90
21563;DHT22;10942;47.894;11.424;2023-01-29T10:05:36;7.20;99.90
21563;DHT22;10942;47.894;11.424;2023-01-29T10:08:18;7.20;99.90
21563;DHT22;10942;47.894;11.424;2023-01-29T10:10:54;7.50;99.90
21563;DHT22;10942;47.894;11.424;2023-01-29T10:13:31;6.70;99.90
21563;DHT22;10942;47.894;11.424;2023-01-29T10:26:57;3.50;99.90
21563;DHT22;10942;47.894;11.424;2023-01-29T10:29:24;3.80;99.90
21563;DHT22;10942;47.894;11.424;2023-01-29T10:31:55;4.50;99.90
21563;DHT22;10942;47.894;11.424;2023-01-29T10:34:37;4.00;99.90
21563;DHT22;10942;47.894;11.424;2023-01-29T10:37:18;3.40;99.90
21563;DHT22;10942;47.894;11.424;2023-01-29T10:39:46;3.30;99.90
21563;DHT22;10942;47.894;11.424;2023-01-29T10:51:47;6.00;99.90
21563;DHT22;10942;47.894;11.424;2023-01-29T10:59:51;6.90;99.90
21563;DHT22;10942;47.894;11.424;2023-01-29T11:02:21;6.10;99.90
21563;DHT22;10942;47.894;11.424;2023-01-29T11:04:47;5.90;99.90
21563;DHT22;10942;47.894;11.424;2023-01-29T11:07:14;5.40;99.90
21563;DHT22;10942;47.894;11.424;2023-01-29T11:12:17;4.80;99.90
21563;DHT22;10942;47.894;11.424;2023-01-29T11:14:54;4.80;99.90
21563;DHT22;10942;47.894;11.424;2023-01-29T11:17:23;4.60;99.90
21563;DHT22;10942;47.894;11.424;2023-01-29T11:19:51;4.30;99.90
21563;DHT22;10942;47.894;11.424;2023-01-29T11:22:28;4.20;99.90
21563;DHT22;10942;47.894;11.424;2023-01-29T11:25:18;3.60;99.90
21563;DHT22;10942;47.894;11.424;2023-01-29T11:27:56;3.30;99.90
21563;DHT22;10942;47.894;11.424;2023-01-29T11:30:34;3.50;99.90
21563;DHT22;10942;47.894;11.424;2023-01-29T11:35:33;3.40;99.90
21563;DHT22;10942;47.894;11.424;2023-01-29T11:38:27;3.30;99.90
21563;DHT22;10942;47.894;11.424;2023-01-29T11:41:05;3.30;99.90
21563;DHT22;10942;47.894;11.424;2023-01-29T11:43:32;3.10;99.90
21563;DHT22;10942;47.894;11.424;2023-01-29T11:46:12;3.00;99.90
21563;DHT22;10942;47.894;11.424;2023-01-29T11:48:45;3.20;99.90
21563;DHT22;10942;47.894;11.424;2023-01-29T11:51:24;3.30;99.90
21563;DHT22;10942;47.894;11.424;2023-01-29T11:53:58;3.30;99.90
21563;DHT22;10942;47.894;11.424;2023-01-29T11:56:31;3.40;99.90
21563;DHT22;10942;47.894;11.424;2023-01-29T11:58:59;3.30;99.90
21563;DHT22;10942;47.894;11.424;2023-01-29T12:01:37;3.40;99.90
21563;DHT22;10942;47.894;11.424;2023-01-29T12:04:18;3.50;99.90
21563;DHT22;10942;47.894;11.424;2023-01-29T12:06:46;3.40;99.90
21563;DHT22;10942;47.894;11.424;2023-01-29T12:09:17;3.30;99.90
21563;DHT22;10942;47.894;11.424;2023-01-29T12:11:44;3.20;99.90
21563;DHT22;10942;47.894;11.424;2023-01-29T12:14:30;3.40;99.90
21563;DHT22;10942;47.894;11.424;2023-01-29T12:17:03;3.50;99.90
21563;DHT22;10942;47.894;11.424;2023-01-29T12:19:35;3.60;99.90
21563;DHT22;10942;47.894;11.424;2023-01-29T12:22:04;3.20;99.90
21563;DHT22;10942;47.894;11.424;2023-01-29T12:24:42;3.30;99.90
21563;DHT22;10942;47.894;11.424;2023-01-29T12:33:57;3.40;99.90
21563;DHT22;10942;47.894;11.424;2023-01-29T12:36:12;3.40;99.90
21563;DHT22;10942;47.894;11.424;2023-01-29T12:38:39;3.20;99.90
21563;DHT22;10942;47.894;11.424;2023-01-29T12:41:35;3.40;99.90
21563;DHT22;10942;47.894;11.424;2023-01-29T12:44:19;3.50;99.90
21563;DHT22;10942;47.894;11.424;2023-01-29T12:46:47;3.70;99.90
21563;DHT22;10942;47.894;11.424;2023-01-29T12:49:22;3.90;99.90
21563;DHT22;10942;47.894;11.424;2023-01-29T12:52:03;3.70;99.90
21563;DHT22;10942;47.894;11.424;2023-01-29T12:55:12;3.80;99.90
21563;DHT22;10942;47.894;11.424;2023-01-29T13:00:26;3.80;99.90
21563;DHT22;10942;47.894;11.424;2023-01-29T13:05:37;3.80;99.90
21563;DHT22;10942;47.894;11.424;2023-01-29T13:08:10;3.70;99.90
21563;DHT22;10942;47.894;11.424;2023-01-29T13:10:42;3.50;99.90
21563;DHT22;10942;47.894;11.424;2023-01-29T13:13:27;3.50;99.90
21563;DHT22;10942;47.894;11.424;2023-01-29T13:15:55;3.60;99.90
21563;DHT22;10942;47.894;11.424;2023-01-29T13:18:45;3.50;99.90
21563;DHT22;10942;47.894;11.424;2023-01-29T13:21:21;3.50;99.90
21563;DHT22;10942;47.894;11.424;2023-01-29T13:23:56;3.40;99.90
21563;DHT22;10942;47.894;11.424;2023-01-29T13:26:24;3.50;99.90
21563;DHT22;10942;47.894;11.424;2023-01-29T13:28:51;3.50;99.90
21563;DHT22;10942;47.894;11.424;2023-01-29T13:31:29;3.50;99.90
21563;DHT22;10942;47.894;11.424;2023-01-29T13:36:51;3.60;99.90
21563;DHT22;10942;47.894;11.424;2023-01-29T13:39:38;3.70;99.90
21563;DHT22;10942;47.894;11.424;2023-01-29T13:42:18;3.30;99.90
21563;DHT22;10942;47.894;11.424;2023-01-29T13:44:56;3.40;99.90
21563;DHT22;10942;47.894;11.424;2023-01-29T13:47:31;3.50;99.90
21563;DHT22;10942;47.894;11.424;2023-01-29T13:50:23;3.30;99.90
21563;DHT22;10942;47.894;11.424;2023-01-29T13:52:58;3.20;99.90
21563;DHT22;10942;47.894;11.424;2023-01-29T13:55:35;3.00;99.90
21563;DHT22;10942;47.894;11.424;2023-01-29T13:58:02;3.10;99.90
21563;DHT22;10942;47.894;11.424;2023-01-29T14:08:35;2.70;99.90
21563;DHT22;10942;47.894;11.424;2023-01-29T14:10:42;2.50;99.90
21563;DHT22;10942;47.894;11.424;2023-01-29T14:18:21;2.20;99.90
21563;DHT22;10942;47.894;11.424;2023-01-29T14:20:52;2.30;99.90
21563;DHT22;10942;47.894;11.424;2023-01-29T14:25:47;2.30;99.90
21563;DHT22;10942;47.894;11.424;2023-01-29T14:28:19;2.20;99.90
21563;DHT22;10942;47.894;11.424;2023-01-29T14:30:47;2.10;99.90
21563;DHT22;10942;47.894;11.424;2023-01-29T14:33:34;2.20;99.90
21563;DHT22;10942;47.894;11.424;2023-01-29T14:36:04;2.10;99.90
21563;DHT22;10942;47.894;11.424;2023-01-29T14:38:32;2.10;99.90
21563;DHT22;10942;47.894;11.424;2023-01-29T14:41:11;1.90;99.90
21563;DHT22;10942;47.894;11.424;2023-01-29T14:43:39;1.90;99.90
21563;DHT22;10942;47.894;11.424;2023-01-29T14:48:59;1.90;99.90
21563;DHT22;10942;47.894;11.424;2023-01-29T14:51:26;1.80;99.90
21563;DHT22;10942;47.894;11.424;2023-01-29T14:54:38;1.80;99.90
21563;DHT22;10942;47.894;11.424;2023-01-29T14:57:07;1.80;99.90
21563;DHT22;10942;47.894;11.424;2023-01-29T15:02:23;1.80;99.90
21563;DHT22;10942;47.894;11.424;2023-01-29T15:04:56;1.90;99.90
21563;DHT22;10942;47.894;11.424;2023-01-29T15:10:07;1.80;99.90
21563;DHT22;10942;47.894;11.424;2023-01-29T15:12:49;1.80;99.90
21563;DHT22;10942;47.894;11.424;2023-01-29T15:15:28;1.60;99.90
21563;DHT22;10942;47.894;11.424;2023-01-29T15:21:04;1.70;99.90
21563;DHT22;10942;47.894;11.424;2023-01-29T15:23:32;1.70;99.90
21563;DHT22;10942;47.894;11.424;2023-01-29T15:26:00;1.70;99.90
21563;DHT22;10942;47.894;11.424;2023-01-29T15:28:32;1.60;99.90
21563;DHT22;10942;47.894;11.424;2023-01-29T15:31:00;1.50;99.90
21563;DHT22;10942;47.894;11.424;2023-01-29T15:33:27;1.50;99.90
21563;DHT22;10942;47.894;11.424;2023-01-29T15:35:58;1.60;99.90
21563;DHT22;10942;47.894;11.424;2023-01-29T15:38:25;1.50;99.90
21563;DHT22;10942;47.894;11.424;2023-01-29T15:40:59;1.50;99.90
21563;DHT22;10942;47.894;11.424;2023-01-29T15:43:30;1.40;99.90
21563;DHT22;10942;47.894;11.424;2023-01-29T15:45:59;1.40;99.90
21563;DHT22;10942;47.894;11.424;2023-01-29T15:50:57;1.40;99.90
21563;DHT22;10942;47.894;11.424;2023-01-29T15:53:36;1.30;99.90
21563;DHT22;10942;47.894;11.424;2023-01-29T15:56:07;1.30;99.90
21563;DHT22;10942;47.894;11.424;2023-01-29T15:58:34;1.30;99.90
21563;DHT22;10942;47.894;11.424;2023-01-29T16:01:00;1.20;99.90
21563;DHT22;10942;47.894;11.424;2023-01-29T16:03:30;1.20;99.90
21563;DHT22;10942;47.894;11.424;2023-01-29T16:05:57;1.20;99.90
21563;DHT22;10942;47.894;11.424;2023-01-29T16:08:24;1.10;99.90
21563;DHT22;10942;47.894;11.424;2023-01-29T16:10:58;1.10;99.90
21563;DHT22;10942;47.894;11.424;2023-01-29T16:13:28;1.10;99.90
21563;DHT22;10942;47.894;11.424;2023-01-29T16:16:01;1.00;99.90
21563;DHT22;10942;47.894;11.424;2023-01-29T16:18:36;1.00;99.90
21563;DHT22;10942;47.894;11.424;2023-01-29T16:21:06;0.90;99.90
21563;DHT22;10942;47.894;11.424;2023-01-29T16:23:39;0.90;99.90
21563;DHT22;10942;47.894;11.424;2023-01-29T16:26:06;0.90;99.90
21563;DHT22;10942;47.894;11.424;2023-01-29T16:28:39;0.90;99.90
21563;DHT22;10942;47.894;11.424;2023-01-29T16:31:05;0.70;99.90
21563;DHT22;10942;47.894;11.424;2023-01-29T16:33:36;0.70;99.90
21563;DHT22;10942;47.894;11.424;2023-01-29T16:36:11;0.60;99.90
21563;DHT22;10942;47.894;11.424;2023-01-29T16:38:39;0.60;99.90
21563;DHT22;10942;47.894;11.424;2023-01-29T16:43:44;0.70;99.90
21563;DHT22;10942;47.894;11.424;2023-01-29T16:48:45;0.60;99.90
21563;DHT22;10942;47.894;11.424;2023-01-29T16:51:27;0.60;99.90
21563;DHT22;10942;47.894;11.424;2023-01-29T16:53:57;0.50;99.90
21563;DHT22;10942;47.894;11.424;2023-01-29T16:56:25;0.50;99.90
21563;DHT22;10942;47.894;11.424;2023-01-29T16:58:53;0.60;99.90
21563;DHT22;10942;47.894;11.424;2023-01-29T17:01:20;0.60;99.90
21563;DHT22;10942;47.894;11.424;2023-01-29T17:03:58;0.60;99.90
21563;DHT22;10942;47.894;11.424;2023-01-29T17:06:25;0.50;99.90
21563;DHT22;10942;47.894;11.424;2023-01-29T17:08:52;0.50;99.90
21563;DHT22;10942;47.894;11.424;2023-01-29T17:13:58;0.50;99.90
21563;DHT22;10942;47.894;11.424;2023-01-29T17:16:30;0.60;99.90
21563;DHT22;10942;47.894;11.424;2023-01-29T17:18:57;0.60;99.90
21563;DHT22;10942;47.894;11.424;2023-01-29T17:21:23;0.60;99.90
21563;DHT22;10942;47.894;11.424;2023-01-29T17:23:49;0.70;99.90
21563;DHT22;10942;47.894;11.424;2023-01-29T17:26:16;0.70;99.90
21563;DHT22;10942;47.894;11.424;2023-01-29T17:28:43;0.70;99.90
21563;DHT22;10942;47.894;11.424;2023-01-29T17:31:09;0.70;99.90
21563;DHT22;10942;47.894;11.424;2023-01-29T17:33:37;0.60;99.90
21563;DHT22;10942;47.894;11.424;2023-01-29T17:36:04;0.60;99.90
21563;DHT22;10942;47.894;11.424;2023-01-29T17:38:30;0.60;99.90
21563;DHT22;10942;47.894;11.424;2023-01-29T17:43:27;0.60;99.90
21563;DHT22;10942;47.894;11.424;2023-01-29T17:45:53;0.60;99.90
21563;DHT22;10942;47.894;11.424;2023-01-29T17:48:23;0.60;99.90
21563;DHT22;10942;47.894;11.424;2023-01-29T17:50:50;0.60;99.90
21563;DHT22;10942;47.894;11.424;2023-01-29T17:53:18;0.60;99.90
21563;DHT22;10942;47.894;11.424;2023-01-29T17:55:44;0.60;99.90
21563;DHT22;10942;47.894;11.424;2023-01-29T18:00:43;0.50;99.90
21563;DHT22;10942;47.894;11.424;2023-01-29T18:03:08;0.30;99.90
21563;DHT22;10942;47.894;11.424;2023-01-29T18:05:34;0.30;99.90
21563;DHT22;10942;47.894;11.424;2023-01-29T18:08:00;0.30;99.90
21563;DHT22;10942;47.894;11.424;2023-01-29T18:10:27;0.20;99.90
21563;DHT22;10942;47.894;11.424;2023-01-29T18:12:53;0.20;99.90
21563;DHT22;10942;47.894;11.424;2023-01-29T18:15:18;0.20;99.90
21563;DHT22;10942;47.894;11.424;2023-01-29T18:17:44;0.00;99.90
21563;DHT22;10942;47.894;11.424;2023-01-29T18:20:23;0.10;99.90
21563;DHT22;10942;47.894;11.424;2023-01-29T18:22:51;-0.10;99.90
21563;DHT22;10942;47.894;11.424;2023-01-29T18:25:17;-0.10;99.90
21563;DHT22;10942;47.894;11.424;2023-01-29T18:27:43;-0.20;99.90
21563;DHT22;10942;47.894;11.424;2023-01-29T18:30:10;-0.20;99.90